ETD295 UACC-OMAA
Flight info
| Callsign | ETD295 |
|---|---|
| Flight time | N/A |
| Altitude | 34000 |
| Route | KOKON M75 DARVA A370 MAVAX B359 ASB B114 RIKOP M324 PATAT L519 IVOXI Q311 EMERU |
| Aircraft | A320/M-S/C |
Departure
| Time | 2026-05-07 06:46 |
|---|---|
| Airport | Nursultan Nazarbayev International Airport (UACC) |
Arrival
| Time | N/A |
|---|---|
| Airport | Zayed International Airport (OMAA) |
| Time | Latitude | Longitude | Altitude | Speed | Heading |
|---|---|---|---|---|---|
| 2026-05-07 06:43 | 51.01471 | 71.44937 | 1180 ft | 10 kts | 224° |
| 2026-05-07 06:44 | 51.01423 | 71.44862 | 1180 ft | 11 kts | 224° |
| 2026-05-07 06:44 | 51.01365 | 71.44770 | 1180 ft | 12 kts | 225° |
| 2026-05-07 06:44 | 51.01303 | 71.44691 | 1180 ft | 11 kts | 194° |
| 2026-05-07 06:44 | 51.01240 | 71.44735 | 1180 ft | 10 kts | 133° |
| 2026-05-07 06:45 | 51.01197 | 71.44809 | 1180 ft | 9 kts | 133° |
| 2026-05-07 06:45 | 51.01168 | 71.44881 | 1180 ft | 7 kts | 100° |
| 2026-05-07 06:45 | 51.01191 | 71.44953 | 1180 ft | 11 kts | 45° |
| 2026-05-07 06:45 | 51.01396 | 71.45277 | 1180 ft | 75 kts | 45° |
| 2026-05-07 06:46 | 51.01909 | 71.46079 | 1180 ft | 130 kts | 45° |
| 2026-05-07 06:46 | 51.02649 | 71.47238 | 1253 ft | 160 kts | 45° |
| 2026-05-07 06:46 | 51.03385 | 71.48375 | 1826 ft | 141 kts | 45° |
| 2026-05-07 06:46 | 51.04098 | 71.49469 | 2119 ft | 146 kts | 45° |
| 2026-05-07 06:47 | 51.04744 | 71.50759 | 2410 ft | 154 kts | 65° |
| 2026-05-07 06:47 | 51.04916 | 71.52549 | 2641 ft | 184 kts | 97° |
| 2026-05-07 06:47 | 51.04315 | 71.54477 | 2896 ft | 202 kts | 124° |
| 2026-05-07 06:47 | 51.03399 | 71.56247 | 3080 ft | 212 kts | 128° |
| 2026-05-07 06:48 | 51.02497 | 71.58140 | 3304 ft | 219 kts | 124° |
| 2026-05-07 06:48 | 51.01688 | 71.60155 | 4165 ft | 214 kts | 121° |
| 2026-05-07 06:48 | 51.00936 | 71.62248 | 4802 ft | 223 kts | 119° |
| 2026-05-07 06:48 | 51.00212 | 71.64439 | 5525 ft | 225 kts | 118° |
| 2026-05-07 06:49 | 50.99506 | 71.66688 | 6185 ft | 230 kts | 118° |
| 2026-05-07 06:49 | 50.98806 | 71.68992 | 6873 ft | 233 kts | 117° |
| 2026-05-07 06:49 | 50.97987 | 71.71183 | 7451 ft | 240 kts | 132° |
| 2026-05-07 06:49 | 50.96617 | 71.72895 | 7573 ft | 266 kts | 156° |
| 2026-05-07 06:50 | 50.94769 | 71.73487 | 8071 ft | 274 kts | 183° |
| 2026-05-07 06:50 | 50.92944 | 71.72744 | 8957 ft | 273 kts | 206° |
| 2026-05-07 06:50 | 50.91459 | 71.70858 | 9676 ft | 277 kts | 231° |
| 2026-05-07 06:50 | 50.90557 | 71.68178 | 10546 ft | 276 kts | 246° |
| 2026-05-07 06:51 | 50.89816 | 71.65353 | 11288 ft | 279 kts | 246° |
| 2026-05-07 06:51 | 50.89060 | 71.62507 | 12038 ft | 280 kts | 246° |
| 2026-05-07 06:51 | 50.88295 | 71.59660 | 12702 ft | 283 kts | 246° |
| 2026-05-07 06:51 | 50.87515 | 71.56778 | 13361 ft | 285 kts | 246° |
| 2026-05-07 06:52 | 50.86737 | 71.53920 | 13959 ft | 288 kts | 246° |
| 2026-05-07 06:52 | 50.85941 | 71.51009 | 14596 ft | 289 kts | 246° |
| 2026-05-07 06:52 | 50.85137 | 71.48077 | 15180 ft | 292 kts | 246° |
| 2026-05-07 06:52 | 50.84323 | 71.45117 | 15723 ft | 295 kts | 246° |
| 2026-05-07 06:53 | 50.83500 | 71.42134 | 16300 ft | 296 kts | 245° |
| 2026-05-07 06:53 | 50.82541 | 71.39240 | 16806 ft | 299 kts | 238° |
| 2026-05-07 06:53 | 50.81314 | 71.36577 | 17317 ft | 301 kts | 230° |
| 2026-05-07 06:53 | 50.79863 | 71.34171 | 17852 ft | 302 kts | 226° |
| 2026-05-07 06:54 | 50.78373 | 71.31794 | 18321 ft | 305 kts | 226° |
| 2026-05-07 06:54 | 50.76870 | 71.29424 | 18822 ft | 307 kts | 225° |
| 2026-05-07 06:54 | 50.75347 | 71.27040 | 19301 ft | 308 kts | 225° |
| 2026-05-07 06:54 | 50.73809 | 71.24646 | 19713 ft | 312 kts | 225° |
| 2026-05-07 06:55 | 50.72257 | 71.22239 | 20153 ft | 313 kts | 225° |
| 2026-05-07 06:55 | 50.71213 | 71.20632 | 20333 ft | 319 kts | 225° |
| 2026-05-07 06:55 | 50.69593 | 71.18138 | 20414 ft | 332 kts | 225° |
| 2026-05-07 06:55 | 50.67343 | 71.14678 | 20519 ft | 350 kts | 225° |
| 2026-05-07 06:56 | 50.65572 | 71.11960 | 20597 ft | 361 kts | 225° |
| 2026-05-07 06:56 | 50.63744 | 71.09156 | 20678 ft | 372 kts | 225° |
| 2026-05-07 06:56 | 50.62475 | 71.07211 | 20836 ft | 376 kts | 225° |
| 2026-05-07 06:56 | 50.60598 | 71.04339 | 21285 ft | 377 kts | 225° |
| 2026-05-07 06:57 | 50.58739 | 71.01497 | 21622 ft | 380 kts | 225° |
| 2026-05-07 06:57 | 50.56835 | 70.98589 | 22010 ft | 381 kts | 225° |
| 2026-05-07 06:57 | 50.54874 | 70.95765 | 22380 ft | 383 kts | 222° |
| 2026-05-07 06:57 | 50.52859 | 70.92988 | 22730 ft | 385 kts | 222° |
| 2026-05-07 06:58 | 50.50838 | 70.90208 | 23074 ft | 388 kts | 222° |
| 2026-05-07 06:58 | 50.48802 | 70.87408 | 23420 ft | 389 kts | 222° |
| 2026-05-07 06:58 | 50.46760 | 70.84601 | 23786 ft | 391 kts | 222° |
| 2026-05-07 06:58 | 50.44704 | 70.81777 | 24088 ft | 393 kts | 222° |
| 2026-05-07 06:59 | 50.42638 | 70.78941 | 24423 ft | 395 kts | 222° |
| 2026-05-07 06:59 | 50.40798 | 70.76418 | 24735 ft | 395 kts | 222° |
| 2026-05-07 06:59 | 50.38714 | 70.73563 | 25025 ft | 398 kts | 222° |
| 2026-05-07 06:59 | 50.36627 | 70.70707 | 25334 ft | 399 kts | 222° |
| 2026-05-07 07:00 | 50.34562 | 70.67884 | 25645 ft | 400 kts | 222° |
| 2026-05-07 07:00 | 50.32461 | 70.65014 | 25902 ft | 402 kts | 222° |
| 2026-05-07 07:00 | 50.30349 | 70.62134 | 26211 ft | 402 kts | 222° |
| 2026-05-07 07:00 | 50.28233 | 70.59250 | 26478 ft | 404 kts | 222° |
| 2026-05-07 07:01 | 50.26111 | 70.56361 | 26725 ft | 406 kts | 222° |
| 2026-05-07 07:01 | 50.23981 | 70.53465 | 27018 ft | 406 kts | 222° |
| 2026-05-07 07:01 | 50.21841 | 70.50559 | 27259 ft | 408 kts | 222° |
| 2026-05-07 07:01 | 50.19696 | 70.47649 | 27496 ft | 409 kts | 222° |
| 2026-05-07 07:02 | 50.17547 | 70.44737 | 27773 ft | 409 kts | 222° |
| 2026-05-07 07:02 | 50.15307 | 70.41965 | 27990 ft | 412 kts | 218° |
| 2026-05-07 07:02 | 50.13008 | 70.39286 | 28205 ft | 413 kts | 218° |
| 2026-05-07 07:02 | 50.10701 | 70.36603 | 28458 ft | 414 kts | 218° |
| 2026-05-07 07:03 | 50.08424 | 70.33953 | 28676 ft | 415 kts | 218° |
| 2026-05-07 07:03 | 50.06106 | 70.31255 | 28867 ft | 416 kts | 218° |
| 2026-05-07 07:03 | 50.03784 | 70.28556 | 29102 ft | 417 kts | 218° |
| 2026-05-07 07:03 | 50.01457 | 70.25861 | 29317 ft | 418 kts | 218° |
| 2026-05-07 07:04 | 49.99122 | 70.23158 | 29490 ft | 419 kts | 218° |
| 2026-05-07 07:04 | 49.96780 | 70.20447 | 29698 ft | 420 kts | 218° |
| 2026-05-07 07:04 | 49.94447 | 70.17748 | 30017 ft | 418 kts | 218° |
| 2026-05-07 07:04 | 49.92117 | 70.15053 | 30144 ft | 420 kts | 218° |
| 2026-05-07 07:05 | 49.89763 | 70.12331 | 30310 ft | 421 kts | 218° |
| 2026-05-07 07:05 | 49.87416 | 70.09621 | 30508 ft | 421 kts | 218° |
| 2026-05-07 07:05 | 49.85066 | 70.06909 | 30649 ft | 422 kts | 218° |
| 2026-05-07 07:05 | 49.82702 | 70.04183 | 30781 ft | 423 kts | 218° |
| 2026-05-07 07:06 | 49.80339 | 70.01461 | 30930 ft | 424 kts | 218° |
| 2026-05-07 07:06 | 49.77964 | 69.98728 | 31070 ft | 425 kts | 218° |
| 2026-05-07 07:06 | 49.75596 | 69.96006 | 31275 ft | 424 kts | 218° |
| 2026-05-07 07:06 | 49.73225 | 69.93285 | 31456 ft | 424 kts | 218° |
| 2026-05-07 07:07 | 49.70859 | 69.90572 | 31631 ft | 423 kts | 218° |
| 2026-05-07 07:07 | 49.68490 | 69.87859 | 31833 ft | 422 kts | 218° |
| 2026-05-07 07:07 | 49.66141 | 69.85173 | 32026 ft | 421 kts | 218° |
| 2026-05-07 07:07 | 49.63809 | 69.82509 | 32179 ft | 421 kts | 218° |
| 2026-05-07 07:08 | 49.61453 | 69.79821 | 32351 ft | 421 kts | 218° |
| 2026-05-07 07:08 | 49.59094 | 69.77133 | 32550 ft | 420 kts | 218° |
| 2026-05-07 07:08 | 49.56750 | 69.74466 | 32723 ft | 419 kts | 218° |
| 2026-05-07 07:08 | 49.54401 | 69.71796 | 32878 ft | 419 kts | 218° |
| 2026-05-07 07:09 | 49.52065 | 69.69144 | 33038 ft | 419 kts | 218° |
| 2026-05-07 07:09 | 49.49715 | 69.66479 | 33245 ft | 417 kts | 218° |
| 2026-05-07 07:09 | 49.47378 | 69.63833 | 33379 ft | 417 kts | 218° |
| 2026-05-07 07:09 | 49.45030 | 69.61177 | 33487 ft | 418 kts | 218° |
| 2026-05-07 07:10 | 49.42689 | 69.58532 | 33652 ft | 418 kts | 218° |
| 2026-05-07 07:10 | 49.40352 | 69.55895 | 33855 ft | 417 kts | 218° |
| 2026-05-07 07:10 | 49.38004 | 69.53249 | 33956 ft | 418 kts | 218° |
| 2026-05-07 07:10 | 49.35685 | 69.50638 | 33982 ft | 418 kts | 218° |
| 2026-05-07 07:11 | 49.31002 | 69.45377 | 33991 ft | 417 kts | 218° |
| 2026-05-07 07:11 | 49.26309 | 69.40157 | 33992 ft | 417 kts | 218° |
| 2026-05-07 07:12 | 49.21824 | 69.35224 | 33992 ft | 417 kts | 218° |
| 2026-05-07 07:12 | 49.17119 | 69.30031 | 33974 ft | 417 kts | 218° |
| 2026-05-07 07:13 | 49.12425 | 69.24841 | 33966 ft | 416 kts | 218° |
| 2026-05-07 07:13 | 49.07725 | 69.19644 | 33965 ft | 417 kts | 218° |
| 2026-05-07 07:14 | 49.03035 | 69.14462 | 33966 ft | 417 kts | 218° |
| 2026-05-07 07:14 | 48.98370 | 69.09316 | 33966 ft | 417 kts | 218° |
| 2026-05-07 07:15 | 48.93671 | 69.04141 | 33966 ft | 417 kts | 218° |
| 2026-05-07 07:15 | 48.88965 | 68.98969 | 33966 ft | 417 kts | 218° |
| 2026-05-07 07:16 | 48.84268 | 68.93817 | 33966 ft | 417 kts | 218° |
| 2026-05-07 07:16 | 48.79556 | 68.88661 | 33966 ft | 417 kts | 218° |
| 2026-05-07 07:17 | 48.74892 | 68.83569 | 33964 ft | 416 kts | 218° |
| 2026-05-07 07:17 | 48.70192 | 68.78450 | 33964 ft | 415 kts | 218° |
| 2026-05-07 07:18 | 48.65495 | 68.73345 | 33963 ft | 415 kts | 218° |
| 2026-05-07 07:18 | 48.60791 | 68.68246 | 33963 ft | 415 kts | 218° |
| 2026-05-07 07:19 | 48.56089 | 68.63159 | 33964 ft | 415 kts | 218° |
| 2026-05-07 07:19 | 48.51361 | 68.58234 | 33963 ft | 415 kts | 216° |
| 2026-05-07 07:20 | 48.46566 | 68.53381 | 33963 ft | 415 kts | 216° |
| 2026-05-07 07:20 | 48.41776 | 68.48517 | 33963 ft | 415 kts | 216° |
| 2026-05-07 07:21 | 48.36996 | 68.43659 | 33963 ft | 413 kts | 216° |
| 2026-05-07 07:21 | 48.32226 | 68.38812 | 33963 ft | 413 kts | 216° |
| 2026-05-07 07:22 | 48.27529 | 68.33917 | 33963 ft | 413 kts | 217° |
| 2026-05-07 07:22 | 48.22818 | 68.28951 | 33963 ft | 413 kts | 217° |
| 2026-05-07 07:23 | 48.18115 | 68.23996 | 33963 ft | 412 kts | 217° |
| 2026-05-07 07:23 | 48.13429 | 68.19065 | 33963 ft | 412 kts | 217° |
| 2026-05-07 07:24 | 48.08740 | 68.14138 | 33963 ft | 412 kts | 217° |
| 2026-05-07 07:24 | 48.04039 | 68.09208 | 33963 ft | 412 kts | 217° |
| 2026-05-07 07:25 | 47.97016 | 68.01861 | 33963 ft | 412 kts | 217° |
| 2026-05-07 07:26 | 47.92314 | 67.96956 | 33963 ft | 412 kts | 217° |
| 2026-05-07 07:26 | 47.87605 | 67.92054 | 33963 ft | 412 kts | 217° |
| 2026-05-07 07:27 | 47.82904 | 67.87170 | 33963 ft | 412 kts | 217° |
| 2026-05-07 07:27 | 47.78229 | 67.82325 | 33963 ft | 412 kts | 217° |
| 2026-05-07 07:28 | 47.73527 | 67.77463 | 33963 ft | 412 kts | 217° |
| 2026-05-07 07:28 | 47.68840 | 67.72571 | 33963 ft | 412 kts | 217° |
| 2026-05-07 07:29 | 47.64150 | 67.67639 | 33963 ft | 413 kts | 218° |
| 2026-05-07 07:29 | 47.59466 | 67.62708 | 33963 ft | 412 kts | 218° |
| 2026-05-07 07:30 | 47.54780 | 67.57774 | 33963 ft | 412 kts | 218° |
| 2026-05-07 07:30 | 47.50135 | 67.52888 | 33963 ft | 412 kts | 217° |
| 2026-05-07 07:31 | 47.45461 | 67.47977 | 33962 ft | 413 kts | 217° |
| 2026-05-07 07:31 | 47.40770 | 67.43057 | 33962 ft | 413 kts | 217° |
| 2026-05-07 07:32 | 47.36077 | 67.38146 | 33962 ft | 413 kts | 217° |
| 2026-05-07 07:32 | 47.31386 | 67.33246 | 33961 ft | 413 kts | 217° |
| 2026-05-07 07:33 | 47.26692 | 67.28353 | 33961 ft | 413 kts | 217° |
| 2026-05-07 07:33 | 47.21989 | 67.23462 | 33960 ft | 413 kts | 217° |
| 2026-05-07 07:34 | 47.17289 | 67.18585 | 33959 ft | 413 kts | 217° |
| 2026-05-07 07:34 | 47.12611 | 67.13752 | 33958 ft | 414 kts | 217° |
| 2026-05-07 07:35 | 47.07879 | 67.08921 | 33957 ft | 414 kts | 217° |
| 2026-05-07 07:35 | 47.03148 | 67.04080 | 33956 ft | 414 kts | 217° |
| 2026-05-07 07:36 | 46.98421 | 66.99241 | 33955 ft | 414 kts | 217° |
| 2026-05-07 07:36 | 46.93693 | 66.94412 | 33953 ft | 414 kts | 217° |
| 2026-05-07 07:37 | 46.88966 | 66.89600 | 33952 ft | 413 kts | 217° |
| 2026-05-07 07:37 | 46.84280 | 66.84830 | 33950 ft | 413 kts | 217° |
| 2026-05-07 07:38 | 46.79563 | 66.80033 | 33949 ft | 413 kts | 217° |
| 2026-05-07 07:38 | 46.74841 | 66.75239 | 33947 ft | 413 kts | 217° |
| 2026-05-07 07:39 | 46.70118 | 66.70452 | 33945 ft | 413 kts | 217° |
| 2026-05-07 07:39 | 46.65394 | 66.65673 | 33943 ft | 413 kts | 217° |
| 2026-05-07 07:40 | 46.60698 | 66.60932 | 33941 ft | 413 kts | 217° |
| 2026-05-07 07:40 | 46.55978 | 66.56176 | 33938 ft | 412 kts | 217° |
| 2026-05-07 07:41 | 46.51256 | 66.51432 | 33936 ft | 412 kts | 216° |
| 2026-05-07 07:41 | 46.46517 | 66.46717 | 33934 ft | 412 kts | 216° |
| 2026-05-07 07:42 | 46.41815 | 66.42035 | 33931 ft | 411 kts | 216° |
| 2026-05-07 07:42 | 46.37098 | 66.37338 | 33928 ft | 411 kts | 217° |
| 2026-05-07 07:43 | 46.32375 | 66.32637 | 33925 ft | 412 kts | 217° |
| 2026-05-07 07:43 | 46.27653 | 66.27943 | 33923 ft | 411 kts | 216° |
| 2026-05-07 07:44 | 46.23726 | 66.24047 | 33921 ft | 411 kts | 216° |
| 2026-05-07 07:44 | 46.19021 | 66.19385 | 33918 ft | 410 kts | 216° |
| 2026-05-07 07:45 | 46.14302 | 66.14719 | 33915 ft | 411 kts | 216° |
| 2026-05-07 07:45 | 46.09619 | 66.10097 | 33913 ft | 411 kts | 216° |
| 2026-05-07 07:46 | 46.04901 | 66.05450 | 33910 ft | 411 kts | 216° |
| 2026-05-07 07:46 | 46.00167 | 66.00829 | 33908 ft | 411 kts | 216° |
| 2026-05-07 07:47 | 45.95433 | 65.96223 | 33905 ft | 411 kts | 216° |
| 2026-05-07 07:47 | 45.90700 | 65.91614 | 33902 ft | 411 kts | 216° |
| 2026-05-07 07:48 | 45.85998 | 65.87036 | 33900 ft | 411 kts | 216° |
| 2026-05-07 07:48 | 45.81269 | 65.82437 | 33898 ft | 411 kts | 216° |
| 2026-05-07 07:49 | 45.76530 | 65.77835 | 33896 ft | 411 kts | 216° |
| 2026-05-07 07:49 | 45.71790 | 65.73239 | 33894 ft | 411 kts | 216° |
| 2026-05-07 07:50 | 45.67055 | 65.68657 | 33892 ft | 410 kts | 216° |
| 2026-05-07 07:50 | 45.62325 | 65.64089 | 33890 ft | 410 kts | 216° |
| 2026-05-07 07:51 | 45.57588 | 65.59522 | 33889 ft | 411 kts | 216° |
| 2026-05-07 07:51 | 45.52854 | 65.54967 | 33885 ft | 411 kts | 216° |
| 2026-05-07 07:52 | 45.48137 | 65.50439 | 33882 ft | 411 kts | 216° |
| 2026-05-07 07:52 | 45.43394 | 65.45895 | 33881 ft | 410 kts | 216° |
| 2026-05-07 07:53 | 45.38665 | 65.41374 | 33880 ft | 410 kts | 216° |
| 2026-05-07 07:53 | 45.33922 | 65.36848 | 33879 ft | 410 kts | 216° |
| 2026-05-07 07:54 | 45.29181 | 65.32334 | 33878 ft | 410 kts | 216° |
| 2026-05-07 07:54 | 45.24466 | 65.27853 | 33879 ft | 410 kts | 216° |
| 2026-05-07 07:55 | 45.19726 | 65.23358 | 33877 ft | 409 kts | 216° |
| 2026-05-07 07:55 | 45.14987 | 65.18874 | 33877 ft | 410 kts | 216° |
| 2026-05-07 07:56 | 45.10242 | 65.14392 | 33877 ft | 410 kts | 216° |
| 2026-05-07 07:56 | 45.05492 | 65.09914 | 33876 ft | 410 kts | 216° |
| 2026-05-07 07:57 | 45.00777 | 65.05480 | 33876 ft | 410 kts | 216° |
| 2026-05-07 07:57 | 44.96030 | 65.01024 | 33876 ft | 409 kts | 216° |
| 2026-05-07 07:58 | 44.91277 | 64.96589 | 33876 ft | 409 kts | 216° |
| 2026-05-07 07:58 | 44.86504 | 64.92208 | 33876 ft | 409 kts | 216° |
| 2026-05-07 07:59 | 44.81742 | 64.87816 | 33876 ft | 409 kts | 216° |
| 2026-05-07 07:59 | 44.76983 | 64.83428 | 33876 ft | 409 kts | 216° |
| 2026-05-07 08:00 | 44.72231 | 64.79039 | 33876 ft | 409 kts | 216° |
| 2026-05-07 08:00 | 44.67475 | 64.74644 | 33876 ft | 409 kts | 216° |
| 2026-05-07 08:01 | 44.62726 | 64.70260 | 33878 ft | 408 kts | 216° |
| 2026-05-07 08:01 | 44.58022 | 64.65922 | 33878 ft | 408 kts | 216° |
| 2026-05-07 08:02 | 44.53271 | 64.61547 | 33879 ft | 408 kts | 216° |
| 2026-05-07 08:02 | 44.48530 | 64.57190 | 33879 ft | 407 kts | 217° |
| 2026-05-07 08:03 | 44.43786 | 64.52837 | 33880 ft | 407 kts | 216° |
| 2026-05-07 08:03 | 44.39045 | 64.48520 | 33881 ft | 406 kts | 216° |
| 2026-05-07 08:04 | 44.34307 | 64.44206 | 33881 ft | 406 kts | 216° |
| 2026-05-07 08:04 | 44.29599 | 64.39918 | 33883 ft | 406 kts | 216° |
| 2026-05-07 08:05 | 44.24866 | 64.35612 | 33883 ft | 406 kts | 217° |
| 2026-05-07 08:05 | 44.20128 | 64.31306 | 33884 ft | 406 kts | 217° |
| 2026-05-07 08:06 | 44.15397 | 64.27013 | 33885 ft | 406 kts | 217° |
| 2026-05-07 08:06 | 44.10662 | 64.22724 | 33886 ft | 405 kts | 217° |
| 2026-05-07 08:07 | 44.05965 | 64.18477 | 33887 ft | 405 kts | 217° |
| 2026-05-07 08:07 | 44.01235 | 64.14207 | 33888 ft | 405 kts | 217° |
| 2026-05-07 08:08 | 43.96507 | 64.09948 | 33889 ft | 405 kts | 217° |
| 2026-05-07 08:08 | 43.91770 | 64.05689 | 33890 ft | 405 kts | 217° |
| 2026-05-07 08:09 | 43.87034 | 64.01439 | 33892 ft | 405 kts | 217° |
| 2026-05-07 08:09 | 43.82296 | 63.97195 | 33893 ft | 405 kts | 216° |
| 2026-05-07 08:10 | 43.77590 | 63.92988 | 33894 ft | 405 kts | 216° |
| 2026-05-07 08:10 | 43.72851 | 63.88760 | 33895 ft | 405 kts | 216° |
| 2026-05-07 08:11 | 43.68107 | 63.84535 | 33896 ft | 405 kts | 216° |
| 2026-05-07 08:11 | 43.63388 | 63.80273 | 33897 ft | 404 kts | 220° |
| 2026-05-07 08:12 | 43.59446 | 63.74873 | 33899 ft | 399 kts | 233° |
| 2026-05-07 08:12 | 43.55979 | 63.68862 | 33904 ft | 400 kts | 233° |
| 2026-05-07 08:13 | 43.52569 | 63.62878 | 33919 ft | 400 kts | 233° |
| 2026-05-07 08:13 | 43.49021 | 63.56957 | 33908 ft | 400 kts | 231° |
| 2026-05-07 08:14 | 43.45387 | 63.51148 | 33905 ft | 400 kts | 231° |
| 2026-05-07 08:14 | 43.41756 | 63.45338 | 33905 ft | 400 kts | 231° |
| 2026-05-07 08:15 | 43.38127 | 63.39533 | 33905 ft | 400 kts | 231° |
| 2026-05-07 08:15 | 43.34515 | 63.33761 | 33905 ft | 401 kts | 231° |
| 2026-05-07 08:16 | 43.30873 | 63.27959 | 33905 ft | 401 kts | 231° |
| 2026-05-07 08:16 | 43.27227 | 63.22151 | 33905 ft | 401 kts | 231° |
| 2026-05-07 08:17 | 43.23585 | 63.16353 | 33905 ft | 400 kts | 231° |
| 2026-05-07 08:17 | 43.19948 | 63.10568 | 33906 ft | 400 kts | 231° |
| 2026-05-07 08:18 | 43.16307 | 63.04783 | 33906 ft | 401 kts | 231° |
| 2026-05-07 08:18 | 43.12665 | 62.99007 | 33906 ft | 401 kts | 231° |
| 2026-05-07 08:19 | 43.09046 | 62.93279 | 33907 ft | 401 kts | 231° |
| 2026-05-07 08:19 | 43.05395 | 62.87507 | 33907 ft | 400 kts | 230° |
| 2026-05-07 08:20 | 43.01721 | 62.81783 | 33907 ft | 401 kts | 230° |
| 2026-05-07 08:20 | 42.98034 | 62.76051 | 33908 ft | 401 kts | 230° |
| 2026-05-07 08:21 | 42.94356 | 62.70329 | 33908 ft | 401 kts | 230° |
| 2026-05-07 08:21 | 42.90682 | 62.64618 | 33908 ft | 401 kts | 230° |
| 2026-05-07 08:22 | 42.87005 | 62.58909 | 33909 ft | 401 kts | 230° |
| 2026-05-07 08:22 | 42.83345 | 62.53236 | 33909 ft | 401 kts | 230° |
| 2026-05-07 08:23 | 42.79659 | 62.47535 | 33910 ft | 401 kts | 230° |
| 2026-05-07 08:23 | 42.75964 | 62.41831 | 33910 ft | 401 kts | 230° |
| 2026-05-07 08:24 | 42.72272 | 62.36144 | 33910 ft | 401 kts | 230° |
| 2026-05-07 08:24 | 42.68577 | 62.30463 | 33910 ft | 401 kts | 230° |
| 2026-05-07 08:25 | 42.64876 | 62.24784 | 33911 ft | 401 kts | 230° |
| 2026-05-07 08:25 | 42.61191 | 62.19142 | 33911 ft | 401 kts | 230° |
| 2026-05-07 08:26 | 42.55632 | 62.10651 | 33912 ft | 400 kts | 230° |
| 2026-05-07 08:26 | 42.51948 | 62.05037 | 33913 ft | 400 kts | 230° |
| 2026-05-07 08:27 | 42.48244 | 61.99405 | 33914 ft | 400 kts | 230° |
| 2026-05-07 08:27 | 42.44530 | 61.93769 | 33914 ft | 400 kts | 230° |
| 2026-05-07 08:28 | 42.40817 | 61.88146 | 33915 ft | 400 kts | 230° |
| 2026-05-07 08:28 | 42.37118 | 61.82553 | 33916 ft | 400 kts | 230° |
| 2026-05-07 08:29 | 42.33401 | 61.76945 | 33917 ft | 400 kts | 230° |
| 2026-05-07 08:29 | 42.29677 | 61.71337 | 33917 ft | 400 kts | 230° |
| 2026-05-07 08:30 | 42.25954 | 61.65741 | 33918 ft | 400 kts | 230° |
| 2026-05-07 08:30 | 42.22233 | 61.60161 | 33919 ft | 399 kts | 230° |
| 2026-05-07 08:31 | 42.18510 | 61.54587 | 33920 ft | 399 kts | 230° |
| 2026-05-07 08:31 | 42.14786 | 61.49021 | 33920 ft | 399 kts | 230° |
| 2026-05-07 08:32 | 42.11087 | 61.43505 | 33921 ft | 399 kts | 230° |
| 2026-05-07 08:32 | 42.07360 | 61.37957 | 33922 ft | 399 kts | 230° |
| 2026-05-07 08:33 | 42.03627 | 61.32410 | 33923 ft | 399 kts | 230° |
| 2026-05-07 08:33 | 41.99907 | 61.26894 | 33923 ft | 398 kts | 230° |
| 2026-05-07 08:34 | 41.96163 | 61.21353 | 33924 ft | 400 kts | 230° |
| 2026-05-07 08:34 | 41.93050 | 61.16751 | 33925 ft | 400 kts | 230° |
| 2026-05-07 08:35 | 41.88689 | 61.10320 | 33925 ft | 400 kts | 230° |
| 2026-05-07 08:35 | 41.84946 | 61.04811 | 33926 ft | 399 kts | 230° |
| 2026-05-07 08:36 | 41.81830 | 61.00235 | 33927 ft | 399 kts | 230° |
| 2026-05-07 08:36 | 41.78083 | 60.94738 | 33927 ft | 399 kts | 230° |
| 2026-05-07 08:37 | 41.74332 | 60.89247 | 33930 ft | 399 kts | 230° |
| 2026-05-07 08:37 | 41.70590 | 60.83780 | 33931 ft | 398 kts | 230° |
| 2026-05-07 08:38 | 41.66839 | 60.78309 | 33932 ft | 398 kts | 230° |
| 2026-05-07 08:38 | 41.63089 | 60.72850 | 33932 ft | 398 kts | 229° |
| 2026-05-07 08:39 | 41.59368 | 60.67443 | 33932 ft | 397 kts | 229° |
| 2026-05-07 08:39 | 41.55211 | 60.62560 | 33932 ft | 402 kts | 216° |
| 2026-05-07 08:40 | 41.50434 | 60.58637 | 33932 ft | 403 kts | 215° |
| 2026-05-07 08:40 | 41.45638 | 60.54751 | 33932 ft | 403 kts | 215° |
| 2026-05-07 08:41 | 41.40837 | 60.50882 | 33932 ft | 403 kts | 215° |
| 2026-05-07 08:41 | 41.36031 | 60.47023 | 33932 ft | 403 kts | 215° |
| 2026-05-07 08:42 | 41.31230 | 60.43182 | 33932 ft | 403 kts | 214° |
| 2026-05-07 08:42 | 41.26376 | 60.39431 | 33932 ft | 404 kts | 214° |
| 2026-05-07 08:43 | 41.21505 | 60.35683 | 33932 ft | 405 kts | 214° |
| 2026-05-07 08:43 | 41.16654 | 60.31956 | 33934 ft | 405 kts | 214° |
| 2026-05-07 08:44 | 41.11780 | 60.28216 | 33936 ft | 405 kts | 214° |
| 2026-05-07 08:44 | 41.06901 | 60.24478 | 33937 ft | 405 kts | 214° |
| 2026-05-07 08:45 | 41.02019 | 60.20740 | 33937 ft | 405 kts | 214° |
| 2026-05-07 08:45 | 40.97134 | 60.16995 | 33938 ft | 406 kts | 214° |
| 2026-05-07 08:46 | 40.92247 | 60.13250 | 33938 ft | 406 kts | 214° |
| 2026-05-07 08:46 | 40.87394 | 60.09533 | 33938 ft | 406 kts | 214° |
| 2026-05-07 08:47 | 40.82500 | 60.05791 | 33939 ft | 406 kts | 214° |
| 2026-05-07 08:47 | 40.77598 | 60.02048 | 33940 ft | 407 kts | 214° |
| 2026-05-07 08:48 | 40.72705 | 59.98317 | 33941 ft | 405 kts | 214° |
| 2026-05-07 08:48 | 40.67839 | 59.94616 | 33942 ft | 404 kts | 214° |
| 2026-05-07 08:49 | 40.62967 | 59.90912 | 33943 ft | 404 kts | 214° |
| 2026-05-07 08:49 | 40.58090 | 59.87212 | 33944 ft | 405 kts | 214° |
| 2026-05-07 08:50 | 40.53201 | 59.83508 | 33945 ft | 405 kts | 214° |
| 2026-05-07 08:50 | 40.48340 | 59.79833 | 33948 ft | 405 kts | 214° |
| 2026-05-07 08:51 | 40.43446 | 59.76139 | 33950 ft | 406 kts | 214° |
| 2026-05-07 08:51 | 40.38538 | 59.72472 | 33951 ft | 406 kts | 214° |
| 2026-05-07 08:52 | 40.33634 | 59.68819 | 33953 ft | 406 kts | 214° |
| 2026-05-07 08:52 | 40.28728 | 59.65161 | 33954 ft | 406 kts | 214° |
| 2026-05-07 08:53 | 40.23824 | 59.61504 | 33956 ft | 406 kts | 214° |
| 2026-05-07 08:53 | 40.18917 | 59.57848 | 33965 ft | 406 kts | 214° |
| 2026-05-07 08:54 | 40.14010 | 59.54195 | 33968 ft | 406 kts | 214° |
| 2026-05-07 08:54 | 40.09103 | 59.50548 | 33970 ft | 406 kts | 214° |
| 2026-05-07 08:55 | 40.04225 | 59.46927 | 33971 ft | 406 kts | 214° |
| 2026-05-07 08:55 | 39.99319 | 59.43291 | 33973 ft | 406 kts | 214° |
| 2026-05-07 08:56 | 39.94381 | 59.39637 | 33975 ft | 408 kts | 214° |
| 2026-05-07 08:56 | 39.89441 | 59.35987 | 33977 ft | 408 kts | 214° |
| 2026-05-07 08:57 | 39.84502 | 59.32327 | 33979 ft | 408 kts | 214° |
| 2026-05-07 08:57 | 39.79598 | 59.28690 | 33981 ft | 407 kts | 214° |
| 2026-05-07 08:58 | 39.74671 | 59.25034 | 33983 ft | 407 kts | 214° |
| 2026-05-07 08:58 | 39.69752 | 59.21387 | 33985 ft | 407 kts | 214° |
| 2026-05-07 08:59 | 39.64848 | 59.17754 | 33987 ft | 407 kts | 214° |
| 2026-05-07 08:59 | 39.59920 | 59.14110 | 33999 ft | 407 kts | 214° |
| 2026-05-07 09:00 | 39.54992 | 59.10471 | 34004 ft | 407 kts | 214° |
| 2026-05-07 09:00 | 39.50044 | 59.06891 | 34006 ft | 407 kts | 214° |
| 2026-05-07 09:01 | 39.45090 | 59.03314 | 34008 ft | 408 kts | 214° |
| 2026-05-07 09:01 | 39.40134 | 58.99736 | 34009 ft | 408 kts | 214° |
| 2026-05-07 09:02 | 39.35180 | 58.96162 | 34010 ft | 408 kts | 214° |
| 2026-05-07 09:02 | 39.30263 | 58.92619 | 34012 ft | 408 kts | 214° |
| 2026-05-07 09:03 | 39.25305 | 58.89054 | 34013 ft | 408 kts | 214° |
| 2026-05-07 09:03 | 39.20340 | 58.85488 | 34014 ft | 408 kts | 214° |
| 2026-05-07 09:04 | 39.15370 | 58.81918 | 34022 ft | 408 kts | 214° |
| 2026-05-07 09:04 | 39.10427 | 58.78369 | 34019 ft | 406 kts | 214° |
| 2026-05-07 09:05 | 39.05393 | 58.75030 | 34016 ft | 412 kts | 206° |
| 2026-05-07 09:05 | 38.99869 | 58.72762 | 34018 ft | 417 kts | 203° |
| 2026-05-07 09:06 | 38.94347 | 58.70585 | 34018 ft | 417 kts | 203° |
| 2026-05-07 09:06 | 38.88797 | 58.68415 | 34019 ft | 417 kts | 203° |
| 2026-05-07 09:07 | 38.83233 | 58.66251 | 34020 ft | 418 kts | 203° |
| 2026-05-07 09:07 | 38.77663 | 58.64092 | 34020 ft | 418 kts | 203° |
| 2026-05-07 09:08 | 38.72105 | 58.61877 | 34021 ft | 418 kts | 203° |
| 2026-05-07 09:08 | 38.66586 | 58.59676 | 34020 ft | 418 kts | 203° |
| 2026-05-07 09:09 | 38.61032 | 58.57465 | 34021 ft | 418 kts | 204° |
| 2026-05-07 09:09 | 38.55463 | 58.55251 | 34021 ft | 419 kts | 204° |
| 2026-05-07 09:10 | 38.49901 | 58.53043 | 34022 ft | 419 kts | 204° |
| 2026-05-07 09:10 | 38.44329 | 58.50834 | 34022 ft | 420 kts | 204° |
| 2026-05-07 09:11 | 38.38787 | 58.48642 | 34022 ft | 419 kts | 204° |
| 2026-05-07 09:11 | 38.34049 | 58.46770 | 34022 ft | 419 kts | 204° |
| 2026-05-07 09:12 | 38.28466 | 58.44567 | 34022 ft | 420 kts | 204° |
| 2026-05-07 09:12 | 38.24741 | 58.43098 | 34022 ft | 418 kts | 204° |
| 2026-05-07 09:13 | 38.20488 | 58.41420 | 34022 ft | 417 kts | 203° |
| 2026-05-07 09:13 | 38.14915 | 58.39225 | 34022 ft | 420 kts | 202° |
| 2026-05-07 09:14 | 38.09322 | 58.37031 | 34022 ft | 421 kts | 202° |
| 2026-05-07 09:14 | 38.03733 | 58.34845 | 34023 ft | 420 kts | 202° |
| 2026-05-07 09:15 | 37.98062 | 58.32894 | 34023 ft | 424 kts | 198° |
| 2026-05-07 09:15 | 37.92322 | 58.31332 | 34022 ft | 425 kts | 198° |
| 2026-05-07 09:16 | 37.86540 | 58.29757 | 34024 ft | 425 kts | 198° |
| 2026-05-07 09:16 | 37.80756 | 58.28179 | 34020 ft | 424 kts | 198° |
| 2026-05-07 09:17 | 37.74985 | 58.26607 | 34020 ft | 420 kts | 198° |
| 2026-05-07 09:17 | 37.72120 | 58.25826 | 34131 ft | 422 kts | 198° |
| 2026-05-07 09:17 | 37.69217 | 58.25030 | 34058 ft | 429 kts | 198° |
| 2026-05-07 09:18 | 37.63265 | 58.24113 | 34022 ft | 433 kts | 190° |
| 2026-05-07 09:18 | 37.57266 | 58.23580 | 34038 ft | 431 kts | 190° |
| 2026-05-07 09:19 | 37.51294 | 58.23054 | 34040 ft | 430 kts | 190° |
| 2026-05-07 09:19 | 37.45359 | 58.22538 | 34043 ft | 430 kts | 190° |
| 2026-05-07 09:20 | 37.39382 | 58.22024 | 34044 ft | 430 kts | 190° |
| 2026-05-07 09:20 | 37.33412 | 58.21514 | 34042 ft | 431 kts | 190° |
| 2026-05-07 09:21 | 37.27422 | 58.21005 | 34046 ft | 431 kts | 190° |
| 2026-05-07 09:21 | 37.21434 | 58.20499 | 34055 ft | 432 kts | 190° |
| 2026-05-07 09:22 | 37.15432 | 58.19993 | 34055 ft | 432 kts | 191° |
| 2026-05-07 09:22 | 37.09425 | 58.19488 | 34055 ft | 432 kts | 191° |
| 2026-05-07 09:23 | 37.03431 | 58.18986 | 34055 ft | 432 kts | 191° |
| 2026-05-07 09:23 | 36.97455 | 58.18486 | 34052 ft | 432 kts | 191° |
| 2026-05-07 09:24 | 36.91457 | 58.17985 | 34050 ft | 432 kts | 191° |
| 2026-05-07 09:24 | 36.85458 | 58.17485 | 34048 ft | 433 kts | 191° |
| 2026-05-07 09:25 | 36.80465 | 58.17070 | 34046 ft | 432 kts | 191° |
| 2026-05-07 09:25 | 36.74464 | 58.16571 | 34043 ft | 432 kts | 191° |
| 2026-05-07 09:26 | 36.68471 | 58.16074 | 34041 ft | 432 kts | 191° |
| 2026-05-07 09:26 | 36.62471 | 58.15577 | 34038 ft | 432 kts | 192° |
| 2026-05-07 09:27 | 36.56465 | 58.15080 | 34036 ft | 433 kts | 192° |
| 2026-05-07 09:28 | 36.47462 | 58.14337 | 34033 ft | 432 kts | 192° |
| 2026-05-07 09:28 | 36.41458 | 58.13842 | 34031 ft | 432 kts | 192° |
| 2026-05-07 09:29 | 36.35463 | 58.13349 | 34030 ft | 432 kts | 192° |
| 2026-05-07 09:29 | 36.29463 | 58.12856 | 34028 ft | 432 kts | 192° |
| 2026-05-07 09:30 | 36.23505 | 58.12367 | 34028 ft | 432 kts | 192° |
| 2026-05-07 09:30 | 36.17516 | 58.11867 | 34024 ft | 432 kts | 192° |
| 2026-05-07 09:31 | 36.11513 | 58.11365 | 34023 ft | 431 kts | 192° |
| 2026-05-07 09:31 | 36.05523 | 58.10863 | 34023 ft | 431 kts | 192° |
| 2026-05-07 09:32 | 35.99536 | 58.10360 | 34023 ft | 431 kts | 192° |
| 2026-05-07 09:32 | 35.93707 | 58.09137 | 34024 ft | 422 kts | 200° |
| 2026-05-07 09:33 | 35.88000 | 58.07619 | 34024 ft | 422 kts | 200° |
| 2026-05-07 09:33 | 35.82265 | 58.06082 | 34024 ft | 422 kts | 200° |
| 2026-05-07 09:34 | 35.76527 | 58.04537 | 34024 ft | 422 kts | 200° |
| 2026-05-07 09:34 | 35.70794 | 58.02990 | 34024 ft | 422 kts | 200° |
| 2026-05-07 09:35 | 35.65060 | 58.01440 | 34025 ft | 423 kts | 200° |
| 2026-05-07 09:35 | 35.59308 | 57.99887 | 34025 ft | 422 kts | 200° |
| 2026-05-07 09:36 | 35.53584 | 57.98342 | 34026 ft | 421 kts | 200° |
| 2026-05-07 09:36 | 35.47853 | 57.96814 | 34026 ft | 421 kts | 200° |
| 2026-05-07 09:37 | 35.42158 | 57.95306 | 34027 ft | 421 kts | 200° |
| 2026-05-07 09:37 | 35.36433 | 57.93788 | 34028 ft | 421 kts | 200° |
| 2026-05-07 09:38 | 35.30695 | 57.92270 | 34028 ft | 422 kts | 201° |
| 2026-05-07 09:38 | 35.24950 | 57.90749 | 34029 ft | 422 kts | 201° |
| 2026-05-07 09:39 | 35.19226 | 57.89237 | 34030 ft | 421 kts | 201° |
| 2026-05-07 09:39 | 35.13479 | 57.87719 | 34031 ft | 422 kts | 201° |
| 2026-05-07 09:40 | 35.07744 | 57.86207 | 34032 ft | 421 kts | 201° |
| 2026-05-07 09:40 | 35.02014 | 57.84698 | 34033 ft | 422 kts | 201° |
| 2026-05-07 09:41 | 34.96263 | 57.83186 | 34034 ft | 422 kts | 201° |
| 2026-05-07 09:41 | 34.90565 | 57.81689 | 34035 ft | 422 kts | 201° |
| 2026-05-07 09:42 | 34.84777 | 57.80172 | 34036 ft | 422 kts | 201° |
| 2026-05-07 09:42 | 34.79084 | 57.78681 | 34037 ft | 422 kts | 201° |
| 2026-05-07 09:43 | 34.73321 | 57.77173 | 34038 ft | 423 kts | 201° |
| 2026-05-07 09:43 | 34.67559 | 57.75669 | 34055 ft | 423 kts | 201° |
| 2026-05-07 09:44 | 34.61757 | 57.74152 | 34359 ft | 428 kts | 201° |
| 2026-05-07 09:44 | 34.58853 | 57.73397 | 34663 ft | 427 kts | 201° |
| 2026-05-07 09:44 | 34.55942 | 57.72639 | 34944 ft | 426 kts | 201° |
| 2026-05-07 09:44 | 34.53047 | 57.71888 | 35258 ft | 425 kts | 201° |
| 2026-05-07 09:45 | 34.50158 | 57.71136 | 35452 ft | 426 kts | 201° |
| 2026-05-07 09:45 | 34.47254 | 57.70382 | 35701 ft | 426 kts | 201° |
| 2026-05-07 09:45 | 34.44356 | 57.69629 | 35940 ft | 427 kts | 201° |
| 2026-05-07 09:46 | 34.38562 | 57.68087 | 36048 ft | 425 kts | 201° |
| 2026-05-07 09:46 | 34.32840 | 57.66543 | 36057 ft | 423 kts | 202° |
| 2026-05-07 09:47 | 34.27091 | 57.64988 | 36073 ft | 423 kts | 202° |
| 2026-05-07 09:47 | 34.21355 | 57.63435 | 36076 ft | 423 kts | 202° |
| 2026-05-07 09:48 | 34.15601 | 57.61878 | 36078 ft | 423 kts | 202° |
| 2026-05-07 09:48 | 34.09859 | 57.60325 | 36079 ft | 423 kts | 202° |
| 2026-05-07 09:49 | 34.04114 | 57.58773 | 36081 ft | 423 kts | 202° |
| 2026-05-07 09:49 | 33.98371 | 57.57223 | 36082 ft | 423 kts | 202° |
| 2026-05-07 09:50 | 33.92621 | 57.55673 | 36083 ft | 423 kts | 202° |
| 2026-05-07 09:50 | 33.86910 | 57.54135 | 36084 ft | 423 kts | 202° |
| 2026-05-07 09:51 | 33.81168 | 57.52591 | 36086 ft | 423 kts | 202° |
| 2026-05-07 09:51 | 33.75422 | 57.51049 | 36087 ft | 422 kts | 202° |
| 2026-05-07 09:52 | 33.69700 | 57.49514 | 36088 ft | 423 kts | 202° |
| 2026-05-07 09:52 | 33.63954 | 57.47975 | 36089 ft | 423 kts | 202° |
| 2026-05-07 09:53 | 33.58203 | 57.46437 | 36090 ft | 423 kts | 202° |
| 2026-05-07 09:53 | 33.52450 | 57.44900 | 36091 ft | 423 kts | 201° |
| 2026-05-07 09:54 | 33.46695 | 57.43378 | 36093 ft | 423 kts | 201° |
| 2026-05-07 09:54 | 33.40940 | 57.41858 | 36094 ft | 422 kts | 201° |
| 2026-05-07 09:55 | 33.35204 | 57.40341 | 36095 ft | 422 kts | 201° |
| 2026-05-07 09:55 | 33.29465 | 57.38823 | 36096 ft | 422 kts | 201° |
| 2026-05-07 09:56 | 33.23763 | 57.37315 | 36097 ft | 422 kts | 201° |
| 2026-05-07 09:56 | 33.18023 | 57.35800 | 36098 ft | 422 kts | 201° |
| 2026-05-07 09:57 | 33.12283 | 57.34288 | 36100 ft | 422 kts | 201° |
| 2026-05-07 09:57 | 33.06541 | 57.32775 | 36101 ft | 421 kts | 201° |
| 2026-05-07 09:58 | 33.00812 | 57.31268 | 36103 ft | 421 kts | 201° |
| 2026-05-07 09:58 | 32.95084 | 57.29761 | 36106 ft | 421 kts | 201° |
| 2026-05-07 09:59 | 32.89367 | 57.28258 | 36108 ft | 421 kts | 201° |
| 2026-05-07 09:59 | 32.83644 | 57.26756 | 36096 ft | 421 kts | 201° |
| 2026-05-07 10:00 | 32.77915 | 57.25256 | 36097 ft | 422 kts | 201° |
| 2026-05-07 10:00 | 32.72219 | 57.23766 | 36098 ft | 422 kts | 201° |
| 2026-05-07 10:01 | 32.66482 | 57.22266 | 36100 ft | 422 kts | 201° |
| 2026-05-07 10:01 | 32.60750 | 57.20769 | 36101 ft | 422 kts | 201° |
| 2026-05-07 10:02 | 32.55014 | 57.19272 | 36103 ft | 422 kts | 201° |
| 2026-05-07 10:02 | 32.49294 | 57.17781 | 36105 ft | 420 kts | 201° |
| 2026-05-07 10:03 | 32.43573 | 57.16291 | 36107 ft | 421 kts | 201° |
| 2026-05-07 10:03 | 32.37848 | 57.14801 | 36110 ft | 421 kts | 201° |
| 2026-05-07 10:04 | 32.32124 | 57.13314 | 36112 ft | 421 kts | 201° |
| 2026-05-07 10:04 | 32.26439 | 57.11839 | 36117 ft | 421 kts | 201° |